Terminal Aerodrome Forecast
Issued by NWS Atlanta, GA

Home | Current Version | Previous Version | Text Only | Print | Product List | Glossary On
Versions: 1 2 3 4 5 6 7 8 9 10 11 12 13 14 15 16 17 18 19 20 21 22 23 24 25 26 27 28 29 30 31 32 33 34 35 36 37 38 39
000
FTUS42 KFFC 240540
TAFAHN
TAF
KAHN 240540Z 2406/2506 16003KT P6SM FEW080
     FM240900 19007KT P6SM BKN030
     FM241100 22006KT P6SM BKN009
     FM241400 18004KT P6SM BKN015
     FM241700 21007KT P6SM BKN040
     FM250000 17003KT P6SM BKN100=

USA.gov is the U.S. government's official web portal to all federal, state and local government web resources and services.